createdAt,value
2022-08-27T00:02:08.465Z,70.77
2022-08-27T00:04:37.429Z,71.01
2022-08-27T00:07:06.653Z,70.87
2022-08-27T00:09:35.061Z,70.81
2022-08-27T00:12:03.431Z,70.48
2022-08-27T00:14:33.578Z,70.88
2022-08-27T00:17:02.121Z,70.83
2022-08-27T00:19:30.322Z,70.81
2022-08-27T00:21:58.855Z,70.83
2022-08-27T00:24:26.838Z,70.47
2022-08-27T00:26:54.902Z,70.39
2022-08-27T00:29:22.868Z,70.57
2022-08-27T00:31:53.321Z,70.58
2022-08-27T00:34:22.948Z,70.57
2022-08-27T00:36:53.348Z,70.54
2022-08-27T00:39:22.133Z,70.80
2022-08-27T00:41:50.222Z,70.61
2022-08-27T00:44:18.533Z,70.84
2022-08-27T00:46:49.902Z,70.88
2022-08-27T00:49:23.989Z,70.62
2022-08-27T00:51:55.203Z,70.45
2022-08-27T00:54:23.764Z,70.48
2022-08-27T00:56:52.129Z,70.54
2022-08-27T00:59:24.034Z,70.82
2022-08-27T01:02:10.227Z,70.97
2022-08-27T01:04:42.137Z,70.72
2022-08-27T01:07:11.168Z,70.75
2022-08-27T01:09:40.422Z,70.91
2022-08-27T01:12:09.328Z,70.98
2022-08-27T01:14:37.751Z,71.08
2022-08-27T01:17:09.037Z,70.77
2022-08-27T01:19:42.485Z,70.95
2022-08-27T01:22:21.884Z,71.02
2022-08-27T01:24:55.416Z,70.96
2022-08-27T01:27:26.110Z,70.99
2022-08-27T01:29:54.808Z,70.85
2022-08-27T01:32:26.122Z,70.81
2022-08-27T01:34:55.049Z,70.78
2022-08-27T01:37:25.578Z,70.79
2022-08-27T01:39:59.154Z,70.77
2022-08-27T01:42:32.282Z,70.84
2022-08-27T01:45:05.622Z,70.64
2022-08-27T01:47:34.753Z,70.69
2022-08-27T01:50:03.880Z,71.04
2022-08-27T01:52:32.607Z,71.02
2022-08-27T01:55:02.140Z,71.01
2022-08-27T01:57:32.167Z,70.71
2022-08-27T02:00:00.267Z,70.54
2022-08-27T02:02:28.306Z,70.48
2022-08-27T02:04:56.498Z,70.61
2022-08-27T02:07:24.592Z,70.93
2022-08-27T02:09:52.654Z,70.70
2022-08-27T02:12:22.100Z,70.98
2022-08-27T02:14:50.299Z,70.79
2022-08-27T02:17:18.651Z,70.87
2022-08-27T02:19:46.709Z,70.84
2022-08-27T02:22:15.074Z,70.89
2022-08-27T02:24:43.199Z,70.46
2022-08-27T02:27:11.661Z,70.78
2022-08-27T02:29:41.329Z,70.83
2022-08-27T02:32:22.464Z,70.47
2022-08-27T02:34:58.201Z,70.67
2022-08-27T02:37:26.505Z,70.22
2022-08-27T02:39:54.749Z,70.25
2022-08-27T02:42:22.937Z,70.55
2022-08-27T02:44:52.571Z,70.25
2022-08-27T02:47:20.796Z,70.26
2022-08-27T02:49:49.583Z,70.46
2022-08-27T02:52:17.927Z,70.23
2022-08-27T02:54:53.282Z,70.51
2022-08-27T02:57:21.481Z,70.49
2022-08-27T02:59:49.533Z,70.17
2022-08-27T03:02:19.850Z,70.28
2022-08-27T03:04:48.750Z,70.25
2022-08-27T03:07:19.029Z,70.22
2022-08-27T03:09:47.194Z,70.13
2022-08-27T03:12:16.066Z,70.32
2022-08-27T03:14:44.736Z,70.40
2022-08-27T03:17:29.349Z,70.58
2022-08-27T03:19:58.756Z,70.53
2022-08-27T03:22:27.067Z,70.20
2022-08-27T03:24:55.694Z,70.10
2022-08-27T03:27:23.976Z,70.14
2022-08-27T03:29:52.014Z,70.15
2022-08-27T03:32:20.082Z,70.57
2022-08-27T03:34:48.161Z,70.24
2022-08-27T03:37:17.608Z,70.44
2022-08-27T03:39:45.635Z,70.41
2022-08-27T03:42:13.868Z,70.46
2022-08-27T03:44:41.843Z,70.20
2022-08-27T03:47:10.011Z,70.36
2022-08-27T03:49:37.981Z,70.19
2022-08-27T03:52:06.173Z,70.18
2022-08-27T03:54:37.845Z,70.18
2022-08-27T03:57:07.001Z,70.41
2022-08-27T03:59:35.541Z,70.33
2022-08-27T04:02:03.772Z,70.06
2022-08-27T04:04:32.549Z,70.09
2022-08-27T04:07:01.316Z,70.38
2022-08-27T04:09:29.851Z,70.18
2022-08-27T04:11:59.232Z,70.25
2022-08-27T04:14:27.727Z,70.48
2022-08-27T04:16:56.556Z,70.44
2022-08-27T04:19:27.612Z,70.49
2022-08-27T04:22:00.910Z,70.50
2022-08-27T04:24:29.464Z,70.18
2022-08-27T04:26:57.665Z,70.28
2022-08-27T04:29:27.100Z,70.58
2022-08-27T04:31:56.192Z,70.23
2022-08-27T04:34:24.407Z,70.57
2022-08-27T04:36:53.307Z,70.32
2022-08-27T04:39:21.358Z,70.66
2022-08-27T04:41:50.900Z,70.45
2022-08-27T04:44:18.854Z,70.47
2022-08-27T04:46:49.492Z,70.53
2022-08-27T04:49:18.354Z,70.37
2022-08-27T04:51:48.196Z,70.27
2022-08-27T04:54:17.143Z,70.33
2022-08-27T04:56:45.247Z,70.45
2022-08-27T04:59:13.583Z,70.31
2022-08-27T05:01:45.156Z,70.28
2022-08-27T05:04:16.669Z,70.47
2022-08-27T05:06:45.648Z,70.70
2022-08-27T05:09:14.867Z,70.45
2022-08-27T05:11:43.625Z,70.65
2022-08-27T05:14:15.549Z,70.39
2022-08-27T05:16:44.307Z,70.31
2022-08-27T05:19:15.785Z,70.64
2022-08-27T05:21:48.731Z,70.59
2022-08-27T05:24:17.771Z,70.58
2022-08-27T05:26:46.362Z,70.74
2022-08-27T05:29:14.786Z,70.64
2022-08-27T05:31:43.872Z,70.31
2022-08-27T05:34:16.846Z,70.28
2022-08-27T05:36:54.594Z,70.46
2022-08-27T05:39:22.930Z,70.50
2022-08-27T05:41:52.436Z,70.47
2022-08-27T05:47:09.576Z,70.68
2022-08-27T05:49:37.725Z,70.63
2022-08-27T05:52:10.771Z,70.92
2022-08-27T05:54:39.836Z,70.76
2022-08-27T05:57:07.900Z,71.11
2022-08-27T05:59:54.200Z,70.84
2022-08-27T06:02:22.337Z,70.90
2022-08-27T06:04:50.597Z,70.78
2022-08-27T06:07:20.387Z,70.84
2022-08-27T06:09:48.812Z,70.88
2022-08-27T06:12:16.885Z,70.69
2022-08-27T06:14:44.853Z,70.98
2022-08-27T06:17:12.955Z,71.03
2022-08-27T06:19:42.515Z,70.96
2022-08-27T06:22:11.040Z,70.65
2022-08-27T06:24:41.942Z,70.74
2022-08-27T06:27:11.948Z,70.92
2022-08-27T06:29:41.124Z,71.08
2022-08-27T06:32:10.121Z,70.77
2022-08-27T06:34:38.793Z,71.10
2022-08-27T06:37:07.157Z,71.18
2022-08-27T06:39:36.329Z,71.16
2022-08-27T06:42:08.036Z,70.96
2022-08-27T06:44:36.168Z,71.09
2022-08-27T06:47:04.925Z,70.90
2022-08-27T06:49:33.901Z,71.09
2022-08-27T06:52:01.900Z,71.00
2022-08-27T06:54:30.188Z,70.83
2022-08-27T06:57:00.680Z,70.85
2022-08-27T06:59:30.089Z,71.18
2022-08-27T07:01:58.256Z,71.31
2022-08-27T07:04:32.102Z,71.32
2022-08-27T07:07:01.502Z,71.03
2022-08-27T07:09:32.063Z,70.90
2022-08-27T07:12:00.235Z,71.20
2022-08-27T07:14:35.460Z,71.11
2022-08-27T07:17:06.123Z,71.02
2022-08-27T07:19:41.124Z,71.14
2022-08-27T07:22:10.501Z,71.07
2022-08-27T07:24:38.755Z,70.92
2022-08-27T07:27:07.466Z,71.14
2022-08-27T07:29:36.824Z,71.31
2022-08-27T07:32:05.617Z,71.38
2022-08-27T07:34:33.646Z,71.04
2022-08-27T07:37:01.650Z,71.20
2022-08-27T07:39:29.781Z,71.14
2022-08-27T07:42:16.067Z,71.19
2022-08-27T07:44:45.653Z,71.08
2022-08-27T07:47:14.037Z,71.33
2022-08-27T07:49:42.079Z,71.16
2022-08-27T07:52:10.107Z,71.20
2022-08-27T07:54:38.219Z,71.54
2022-08-27T07:57:06.370Z,71.17
2022-08-27T07:59:34.984Z,71.65
2022-08-27T08:02:05.323Z,71.42
2022-08-27T08:04:33.437Z,71.52
2022-08-27T08:07:01.577Z,71.28
2022-08-27T08:09:30.784Z,71.21
2022-08-27T08:11:59.081Z,71.51
2022-08-27T08:14:28.440Z,71.52
2022-08-27T08:17:00.751Z,71.73
2022-08-27T08:19:32.034Z,71.51
2022-08-27T08:22:03.675Z,71.50
2022-08-27T08:24:33.768Z,71.32
2022-08-27T08:27:06.391Z,71.77
2022-08-27T08:29:35.510Z,71.33
2022-08-27T08:32:03.710Z,71.88
2022-08-27T08:34:33.185Z,71.70
2022-08-27T08:37:01.406Z,71.38
2022-08-27T08:39:29.816Z,71.34
2022-08-27T08:42:01.786Z,71.75
2022-08-27T08:44:34.164Z,71.49
2022-08-27T08:47:07.918Z,71.50
2022-08-27T08:49:48.169Z,71.91
2022-08-27T08:52:31.267Z,71.75
2022-08-27T08:55:10.190Z,71.55
2022-08-27T08:57:43.251Z,71.73
2022-08-27T09:00:14.672Z,71.83
2022-08-27T09:02:50.829Z,71.47
2022-08-27T09:05:20.366Z,71.89
2022-08-27T09:08:28.557Z,72.12
2022-08-27T09:10:59.918Z,72.00
2022-08-27T09:13:32.563Z,71.87
2022-08-27T09:16:04.211Z,71.96
2022-08-27T09:18:35.321Z,71.95
2022-08-27T09:21:11.954Z,72.05
2022-08-27T09:23:53.194Z,72.03
2022-08-27T09:26:24.262Z,71.80
2022-08-27T09:29:16.205Z,71.89
2022-08-27T09:31:46.105Z,72.16
2022-08-27T09:34:15.319Z,72.29
2022-08-27T09:36:56.032Z,72.23
2022-08-27T09:39:30.236Z,72.16
2022-08-27T09:41:58.643Z,71.97
2022-08-27T09:44:26.854Z,72.21
2022-08-27T09:47:00.401Z,71.80
2022-08-27T09:49:28.737Z,71.71
2022-08-27T09:51:59.181Z,72.09
2022-08-27T09:54:38.136Z,72.00
2022-08-27T09:57:07.487Z,72.08
2022-08-27T09:59:37.830Z,72.14
2022-08-27T10:02:14.380Z,72.13
2022-08-27T10:04:50.569Z,72.09
2022-08-27T10:07:33.408Z,72.18
2022-08-27T10:10:10.828Z,72.02
2022-08-27T10:12:48.903Z,72.20
2022-08-27T10:15:17.322Z,72.25
2022-08-27T10:17:55.510Z,72.10
2022-08-27T10:20:34.910Z,71.97
2022-08-27T10:23:16.733Z,72.17
2022-08-27T10:25:58.588Z,72.19
2022-08-27T10:28:41.805Z,72.39
2022-08-27T10:31:26.250Z,72.76
2022-08-27T10:34:07.261Z,72.38
2022-08-27T10:36:50.680Z,72.44
2022-08-27T10:39:33.142Z,72.79
2022-08-27T10:42:21.726Z,72.48
2022-08-27T10:45:03.671Z,72.64
2022-08-27T10:47:50.328Z,72.65
2022-08-27T10:50:28.251Z,72.66
2022-08-27T10:53:01.772Z,72.95
2022-08-27T10:55:35.073Z,72.98
2022-08-27T10:58:40.715Z,73.28
2022-08-27T11:01:18.482Z,72.57
2022-08-27T11:03:54.700Z,72.77
2022-08-27T11:06:27.288Z,72.48
2022-08-27T11:08:59.250Z,72.77
2022-08-27T11:14:30.621Z,72.68
2022-08-27T11:17:04.281Z,72.64
2022-08-27T11:19:42.541Z,73.01
2022-08-27T11:22:17.186Z,72.78
2022-08-27T11:24:58.531Z,73.08
2022-08-27T11:27:31.938Z,72.83
2022-08-27T11:30:05.309Z,72.96
2022-08-27T11:32:44.902Z,73.39
2022-08-27T11:35:18.326Z,72.98
2022-08-27T11:38:06.775Z,73.47
2022-08-27T11:40:50.921Z,73.06
2022-08-27T11:43:23.686Z,73.30
2022-08-27T11:45:58.714Z,73.23
2022-08-27T11:48:29.757Z,73.37
2022-08-27T11:51:00.470Z,73.36
2022-08-27T11:53:31.887Z,73.22
2022-08-27T11:56:10.769Z,73.45
2022-08-27T11:58:52.662Z,73.47
2022-08-27T12:01:27.388Z,73.29
2022-08-27T12:04:03.305Z,73.31
2022-08-27T12:06:43.076Z,73.47
2022-08-27T12:09:17.381Z,73.37
2022-08-27T12:11:56.702Z,73.24
2022-08-27T12:14:39.478Z,73.05
2022-08-27T12:17:17.947Z,73.51
2022-08-27T12:19:56.346Z,73.50
2022-08-27T12:22:56.038Z,73.69
2022-08-27T12:25:26.411Z,73.49
2022-08-27T12:27:59.612Z,73.22
2022-08-27T12:30:34.773Z,73.52
2022-08-27T12:33:13.954Z,73.71
2022-08-27T12:35:48.770Z,73.26
2022-08-27T12:38:20.454Z,73.62
2022-08-27T12:40:51.922Z,73.56
2022-08-27T12:43:22.669Z,73.62
2022-08-27T12:45:56.953Z,73.65
2022-08-27T12:48:28.760Z,73.75
2022-08-27T12:50:59.281Z,73.69
2022-08-27T12:53:46.553Z,74.13
2022-08-27T12:56:40.986Z,74.13
2022-08-27T12:59:26.093Z,73.51
2022-08-27T13:02:05.766Z,73.77
2022-08-27T13:04:38.315Z,73.61
2022-08-27T13:07:06.680Z,73.95
2022-08-27T13:09:36.446Z,73.59
2022-08-27T13:12:15.904Z,73.68
2022-08-27T13:14:44.180Z,73.98
2022-08-27T13:17:19.493Z,73.85
2022-08-27T13:19:52.951Z,73.71
2022-08-27T13:22:26.812Z,74.06
2022-08-27T13:24:57.306Z,73.63
2022-08-27T13:27:27.140Z,73.94
2022-08-27T13:29:56.837Z,73.92
2022-08-27T13:32:29.020Z,73.56
2022-08-27T13:34:59.133Z,73.49
2022-08-27T13:37:33.741Z,73.49
2022-08-27T13:40:01.903Z,73.82
2022-08-27T13:42:31.626Z,73.62
2022-08-27T13:45:04.317Z,73.36
2022-08-27T13:47:44.221Z,73.90
2022-08-27T13:50:20.919Z,73.23
2022-08-27T13:53:02.886Z,73.75
2022-08-27T13:55:33.327Z,73.89
2022-08-27T13:58:01.840Z,73.57
2022-08-27T14:00:32.281Z,73.75
2022-08-27T14:03:02.761Z,73.87
2022-08-27T14:05:34.121Z,73.93
2022-08-27T14:08:12.006Z,73.67
2022-08-27T14:10:42.484Z,73.97
2022-08-27T14:13:14.570Z,74.01
2022-08-27T14:15:45.083Z,73.69
2022-08-27T14:18:42.574Z,74.02
2022-08-27T14:21:14.833Z,73.85
2022-08-27T14:23:42.974Z,73.81
2022-08-27T14:26:11.607Z,73.79
2022-08-27T14:28:39.733Z,73.91
2022-08-27T14:31:07.774Z,73.68
2022-08-27T14:33:37.320Z,73.91
2022-08-27T14:36:06.161Z,73.66
2022-08-27T14:38:40.806Z,73.80
2022-08-27T14:41:09.567Z,73.80
2022-08-27T14:43:38.230Z,73.93
2022-08-27T14:46:08.711Z,73.76
2022-08-27T14:48:40.957Z,73.82
2022-08-27T14:51:13.987Z,73.77
2022-08-27T14:53:42.012Z,73.43
2022-08-27T14:56:10.394Z,73.51
2022-08-27T14:58:38.551Z,73.63
2022-08-27T15:01:07.158Z,73.40
2022-08-27T15:03:40.178Z,73.88
2022-08-27T15:06:08.336Z,73.92
2022-08-27T15:08:37.112Z,73.91
2022-08-27T15:11:07.515Z,73.61
2022-08-27T15:13:38.401Z,73.55
2022-08-27T15:16:07.052Z,73.60
2022-08-27T15:18:35.159Z,73.73
2022-08-27T15:21:05.273Z,73.56
2022-08-27T15:23:33.239Z,73.84
2022-08-27T15:26:01.276Z,73.62
2022-08-27T15:28:29.561Z,73.95
2022-08-27T15:30:57.664Z,73.81
2022-08-27T15:33:25.828Z,73.45
2022-08-27T15:35:53.874Z,73.28
2022-08-27T15:38:23.277Z,73.89
2022-08-27T15:40:51.784Z,73.66
2022-08-27T15:43:20.000Z,73.81
2022-08-27T15:45:48.006Z,73.49
2022-08-27T15:48:16.283Z,73.50
2022-08-27T15:50:44.677Z,73.49
2022-08-27T15:53:12.792Z,73.79
2022-08-27T15:55:44.477Z,73.83
2022-08-27T15:58:13.077Z,73.51
2022-08-27T16:00:43.661Z,73.79
2022-08-27T16:03:15.073Z,73.83
2022-08-27T16:05:45.434Z,73.71
2022-08-27T16:08:14.588Z,73.63
2022-08-27T16:10:44.108Z,73.93
2022-08-27T16:13:12.174Z,73.88
2022-08-27T16:15:42.003Z,73.79
2022-08-27T16:18:11.654Z,73.50
2022-08-27T16:20:41.445Z,73.93
2022-08-27T16:23:09.609Z,73.49
2022-08-27T16:25:37.968Z,73.56
2022-08-27T16:28:07.732Z,73.63
2022-08-27T16:30:35.757Z,73.62
2022-08-27T16:33:03.803Z,73.81
2022-08-27T16:35:32.042Z,73.62
2022-08-27T16:38:00.116Z,73.80
2022-08-27T16:40:28.456Z,73.85
2022-08-27T16:42:56.487Z,73.37
2022-08-27T16:45:26.395Z,73.94
2022-08-27T16:48:12.537Z,73.92
2022-08-27T16:50:42.074Z,73.57
2022-08-27T16:53:13.884Z,73.57
2022-08-27T16:55:43.717Z,73.95
2022-08-27T16:58:18.944Z,73.46
2022-08-27T17:00:51.922Z,73.54
2022-08-27T17:03:21.365Z,73.95
2022-08-27T17:05:49.983Z,73.88
2022-08-27T17:08:20.234Z,73.61
2022-08-27T17:10:51.041Z,73.96
2022-08-27T17:13:22.125Z,73.80
2022-08-27T17:15:57.939Z,73.80
2022-08-27T17:18:28.374Z,73.86
2022-08-27T17:20:57.875Z,73.84
2022-08-27T17:23:32.042Z,73.64
2022-08-27T17:26:00.447Z,74.11
2022-08-27T17:28:28.813Z,73.69
2022-08-27T17:30:58.888Z,73.93
2022-08-27T17:33:31.571Z,73.62
2022-08-27T17:36:00.035Z,73.62
2022-08-27T17:38:28.347Z,73.57
2022-08-27T17:40:57.066Z,73.55
2022-08-27T17:43:25.180Z,73.92
2022-08-27T17:45:53.498Z,73.63
2022-08-27T17:48:26.566Z,73.90
2022-08-27T17:50:55.213Z,73.69
2022-08-27T17:53:23.221Z,73.54
2022-08-27T17:55:51.310Z,73.67
2022-08-27T17:58:20.464Z,73.66
2022-08-27T18:00:48.512Z,73.57
2022-08-27T18:03:21.441Z,73.74
2022-08-27T18:05:50.937Z,73.54
2022-08-27T18:08:20.501Z,73.61
2022-08-27T18:10:49.561Z,73.48
2022-08-27T18:13:18.589Z,73.43
2022-08-27T18:15:46.963Z,73.15
2022-08-27T18:18:15.810Z,73.45
2022-08-27T18:20:43.877Z,73.45
2022-08-27T18:23:13.645Z,73.09
2022-08-27T18:25:42.631Z,73.23
2022-08-27T18:28:13.349Z,73.26
2022-08-27T18:30:43.944Z,73.14
2022-08-27T18:33:12.529Z,73.35
2022-08-27T18:35:41.646Z,73.12
2022-08-27T18:38:10.111Z,73.70
2022-08-27T18:40:42.817Z,73.77
2022-08-27T18:43:11.426Z,73.43
2022-08-27T18:45:39.902Z,73.69
2022-08-27T18:48:13.551Z,73.77
2022-08-27T18:50:45.992Z,73.79
2022-08-27T18:53:15.411Z,73.58
2022-08-27T18:55:45.077Z,73.27
2022-08-27T18:58:13.462Z,73.39
2022-08-27T19:00:43.373Z,73.29
2022-08-27T19:03:12.212Z,73.26
2022-08-27T19:05:40.568Z,73.68
2022-08-27T19:08:12.773Z,73.16
2022-08-27T19:10:40.955Z,73.55
2022-08-27T19:13:10.601Z,73.24
2022-08-27T19:15:39.012Z,73.17
2022-08-27T19:18:09.219Z,73.29
2022-08-27T19:20:37.335Z,73.36
2022-08-27T19:23:05.486Z,73.43
2022-08-27T19:25:33.713Z,73.43
2022-08-27T19:28:01.789Z,73.56
2022-08-27T19:30:32.099Z,73.07
2022-08-27T19:33:00.244Z,72.98
2022-08-27T19:35:28.282Z,73.18
2022-08-27T19:37:56.405Z,72.91
2022-08-27T19:40:24.882Z,72.79
2022-08-27T19:42:53.300Z,72.80
2022-08-27T19:45:23.744Z,73.17
2022-08-27T19:47:54.554Z,73.34
2022-08-27T19:50:23.711Z,73.02
2022-08-27T19:52:52.614Z,73.14
2022-08-27T19:55:21.050Z,72.98
2022-08-27T19:57:52.054Z,73.19
2022-08-27T20:00:22.719Z,73.48
2022-08-27T20:02:50.999Z,72.83
2022-08-27T20:05:25.467Z,73.03
2022-08-27T20:07:54.423Z,73.00
2022-08-27T20:10:25.895Z,72.94
2022-08-27T20:13:04.648Z,72.86
2022-08-27T20:15:33.155Z,72.74
2022-08-27T20:18:01.412Z,72.83
2022-08-27T20:20:31.477Z,72.98
2022-08-27T20:23:02.727Z,72.93
2022-08-27T20:25:31.503Z,72.91
2022-08-27T20:27:59.855Z,73.09
2022-08-27T20:30:30.177Z,73.06
2022-08-27T20:32:58.461Z,72.73
2022-08-27T20:35:27.931Z,72.78
2022-08-27T20:37:57.888Z,72.93
2022-08-27T20:40:29.677Z,72.58
2022-08-27T20:42:57.812Z,73.03
2022-08-27T20:45:30.466Z,72.84
2022-08-27T20:48:00.975Z,72.82
2022-08-27T20:50:32.250Z,72.63
2022-08-27T20:53:02.044Z,72.37
2022-08-27T20:55:30.503Z,72.67
2022-08-27T20:58:16.151Z,72.67
2022-08-27T21:00:44.383Z,72.50
2022-08-27T21:03:14.604Z,72.24
2022-08-27T21:05:47.123Z,72.42
2022-08-27T21:08:19.360Z,72.67
2022-08-27T21:10:50.202Z,72.43
2022-08-27T21:13:19.299Z,72.33
2022-08-27T21:15:47.373Z,72.73
2022-08-27T21:18:15.466Z,72.61
2022-08-27T21:20:43.682Z,72.65
2022-08-27T21:23:11.745Z,72.78
2022-08-27T21:25:41.633Z,72.48
2022-08-27T21:28:09.708Z,72.59
2022-08-27T21:30:38.434Z,72.40
2022-08-27T21:33:06.442Z,72.13
2022-08-27T21:35:34.568Z,72.39
2022-08-27T21:38:02.667Z,72.46
2022-08-27T21:40:33.113Z,72.20
2022-08-27T21:43:03.015Z,72.46
2022-08-27T21:45:31.419Z,72.42
2022-08-27T21:48:02.046Z,72.17
2022-08-27T21:50:30.062Z,72.27
2022-08-27T21:52:58.078Z,72.11
2022-08-27T21:55:26.081Z,72.24
2022-08-27T21:57:54.113Z,72.17
2022-08-27T22:00:43.804Z,72.17
2022-08-27T22:03:13.587Z,72.21
2022-08-27T22:05:43.744Z,72.32
2022-08-27T22:08:12.596Z,72.31
2022-08-27T22:10:43.579Z,72.30
2022-08-27T22:13:12.633Z,72.44
2022-08-27T22:15:43.048Z,72.20
2022-08-27T22:18:11.595Z,72.31
2022-08-27T22:20:40.094Z,72.36
2022-08-27T22:23:09.957Z,72.16
2022-08-27T22:25:38.570Z,72.34
2022-08-27T22:28:07.075Z,72.30
2022-08-27T22:30:35.517Z,72.11
2022-08-27T22:33:05.462Z,72.35
2022-08-27T22:35:33.504Z,72.56
2022-08-27T22:38:02.046Z,72.42
2022-08-27T22:40:31.943Z,72.45
2022-08-27T22:43:01.026Z,72.22
2022-08-27T22:45:30.379Z,72.38
2022-08-27T22:47:59.042Z,72.51
2022-08-27T22:50:28.529Z,72.28
2022-08-27T22:52:56.563Z,72.49
2022-08-27T22:55:25.022Z,72.43
2022-08-27T22:57:54.865Z,72.51
2022-08-27T23:00:25.993Z,72.13
2022-08-27T23:02:54.123Z,72.33
2022-08-27T23:05:24.313Z,72.21
2022-08-27T23:07:56.216Z,72.25
2022-08-27T23:10:25.414Z,71.94
2022-08-27T23:12:54.681Z,72.06
2022-08-27T23:15:24.833Z,71.90
2022-08-27T23:17:53.369Z,72.09
2022-08-27T23:20:22.189Z,72.15
2022-08-27T23:22:50.980Z,72.17
2022-08-27T23:25:39.190Z,72.08
2022-08-27T23:28:14.282Z,72.21
2022-08-27T23:30:43.040Z,72.22
2022-08-27T23:33:11.161Z,72.31
2022-08-27T23:35:41.257Z,72.32
2022-08-27T23:38:09.403Z,71.81
2022-08-27T23:40:38.924Z,71.92
2022-08-27T23:43:07.026Z,72.18
2022-08-27T23:45:39.793Z,72.13
2022-08-27T23:48:09.685Z,72.09
2022-08-27T23:50:38.863Z,71.72
2022-08-27T23:53:07.931Z,71.87
2022-08-27T23:55:36.438Z,71.67
2022-08-27T23:58:07.026Z,72.15
